Haparanda, Finland

11:15 AM EET on November 22, 2017 (GMT +0200)
Haparanda | | Change Station

Elev 26 ft 65.83 °N, 24.14 °E | Updated 4 minutes ago

Klart
Klart
8.6 °F
Feels Like 3 °F
N
3.1
Vind Växlande Vind from NO
Gusts 5.6 miles/tim

Idag
High -- | Low -- °F
--% Chance of Precip.
Yesterday
High -- | Low -- °F
Precip. -- tum
Lufttryck 30.15 tum
Sikt -9999.0 miles
Molnigt
Vindavkylning 3 °F
Daggpunkt 8 °F
Luftfuktighet 97%
Rainfall 0.00 tum
Snow Depth Not available.
9:34 AM 2:43 PM
Första kvarteret, 13% visible
METAR EFKE 220850Z AUTO 06005KT 020V110 CAVOK M12/M14 Q1021
Lufttryck 30.15 tum
Sikt -9999.0 miles
Molnigt
Vindavkylning 3 °F
Daggpunkt 8 °F
Luftfuktighet 97%
Rainfall 0.00 tum
Snow Depth Not available.
9:34 AM 2:43 PM
Första kvarteret, 13% visible
METAR EFKE 220850Z AUTO 06005KT 020V110 CAVOK M12/M14 Q1021

Get Severe Weather Alerts

Thanks for signing up!

Be on the lookout for a verification email in your inbox.

You'll start receiving the daily forecast at 6 AM.

×

10-Day Weather Forecast

Heavy Snow conditions possible.
×

Almanac

Astronomi

Nov. 22, 2017 Rise Set
Actual Time
Civil Twilight
Nautical Twilight
Astronomical Twilight
Månen
Length Of Visible Light
Dagens längd
Tomorrow will be .
, % of the Moon is Illuminated

Today's Extremes

Country Highs Country Lows

Community

WunderPhotos

Category 6

Welcome to Category 6. This is the collective home for Weather Underground's featured writeups by Dr. Jeff Masters (right), Bob Henson (left), Chris Burt, and other regular contributors.

Nearby

Air Quality

  Air Quality AQ Index Pollutant
Not available.

Snödjup

Station Depth Elevation

Earthquake Activity

Stad Distance Mag. Time & Date
Minimum magnitude displayed is 2.5.

Coastal Water Temperatures

Plats Temperatur

Stations

Nearby Weather Stations

Station Location Temp Vindavkylning Daggpunkt Luftfuktighet Vind Precip. Elev Uppdaterad Type